createdAt,value
2022-10-11T02:00:49.685Z,89.69
2022-10-11T02:01:10.305Z,89.75
2022-10-11T02:01:31.052Z,89.75
2022-10-11T02:01:51.682Z,89.84
2022-10-11T02:02:12.257Z,89.89
2022-10-11T02:02:32.837Z,89.64
2022-10-11T02:02:53.425Z,89.64
2022-10-11T02:03:14.007Z,89.69
2022-10-11T02:03:34.589Z,89.64
2022-10-11T02:03:55.182Z,89.64
2022-10-11T02:04:15.778Z,89.69
2022-10-11T02:04:36.347Z,89.69
2022-10-11T02:04:56.931Z,89.69
2022-10-11T02:05:17.514Z,89.78
2022-10-11T02:05:38.096Z,89.78
2022-10-11T02:05:58.695Z,89.89
2022-10-11T02:06:19.277Z,89.89
2022-10-11T02:06:39.857Z,89.69
2022-10-11T02:07:00.439Z,89.69
2022-10-11T02:07:21.024Z,89.69
2022-10-11T02:07:41.609Z,89.89
2022-10-11T02:08:02.179Z,90.09
2022-10-11T02:08:22.761Z,90.20
2022-10-11T02:08:43.338Z,90.30
2022-10-11T02:09:07.944Z,90.20
2022-10-11T02:09:24.314Z,90.09
2022-10-11T02:09:44.900Z,89.89
2022-10-11T02:10:05.476Z,89.69
2022-10-11T02:10:26.058Z,89.69
2022-10-11T02:10:46.639Z,89.78
2022-10-11T02:11:07.252Z,89.78
2022-10-11T02:11:27.834Z,89.69
2022-10-11T02:11:48.415Z,89.58
2022-10-11T02:12:08.999Z,89.48
2022-10-11T02:12:29.580Z,89.58
2022-10-11T02:12:50.167Z,89.58
2022-10-11T02:13:10.750Z,89.69
2022-10-11T02:13:31.333Z,89.78
2022-10-11T02:13:51.915Z,89.78
2022-10-11T02:14:12.495Z,89.69
2022-10-11T02:14:33.081Z,89.78
2022-10-11T02:14:53.475Z,89.89
2022-10-11T02:15:13.869Z,90.20
2022-10-11T02:15:34.452Z,90.20
2022-10-11T02:15:55.054Z,90.09
2022-10-11T02:16:15.631Z,89.89
2022-10-11T02:16:36.208Z,89.89
2022-10-11T02:16:56.791Z,90.20
2022-10-11T02:17:17.374Z,90.09
2022-10-11T02:17:37.955Z,89.99
2022-10-11T02:17:58.539Z,89.89
2022-10-11T02:18:19.128Z,89.89
2022-10-11T02:18:39.713Z,89.89
2022-10-11T02:19:00.292Z,89.89
2022-10-11T02:19:20.877Z,89.89
2022-10-11T02:19:41.457Z,89.89
2022-10-11T02:20:02.037Z,89.89
2022-10-11T02:20:22.619Z,89.89
2022-10-11T02:20:43.204Z,89.89
2022-10-11T02:21:03.793Z,89.99
2022-10-11T02:21:24.393Z,90.09
2022-10-11T02:21:44.973Z,90.09
2022-10-11T02:22:05.561Z,90.09
2022-10-11T02:22:26.147Z,89.99
2022-10-11T02:22:46.725Z,90.09
2022-10-11T02:23:07.123Z,90.20
2022-10-11T02:23:27.706Z,89.99
2022-10-11T02:23:48.295Z,90.09
2022-10-11T02:24:08.943Z,90.20
2022-10-11T02:24:29.475Z,90.09
2022-10-11T02:24:50.059Z,89.93
2022-10-11T02:25:10.639Z,89.89
2022-10-11T02:25:31.231Z,89.78
2022-10-11T02:25:51.813Z,90.03
2022-10-11T02:26:12.393Z,90.30
2022-10-11T02:26:32.805Z,90.44
2022-10-11T02:26:53.389Z,90.24
2022-10-11T02:27:13.972Z,90.14
2022-10-11T02:27:34.552Z,90.14
2022-10-11T02:27:55.139Z,90.14
2022-10-11T02:28:15.784Z,90.03
2022-10-11T02:28:36.486Z,89.93
2022-10-11T02:28:57.219Z,89.93
2022-10-11T02:29:17.788Z,89.83
2022-10-11T02:29:38.371Z,89.72
2022-10-11T02:29:58.951Z,89.93
2022-10-11T02:30:19.531Z,90.14
2022-10-11T02:30:40.117Z,90.24
2022-10-11T02:31:00.719Z,90.14
2022-10-11T02:31:21.297Z,89.83
2022-10-11T02:31:41.875Z,89.83
2022-10-11T02:32:02.458Z,89.83
2022-10-11T02:32:23.038Z,89.83
2022-10-11T02:32:43.624Z,90.03
2022-10-11T02:33:04.205Z,90.14
2022-10-11T02:33:24.786Z,90.24
2022-10-11T02:33:45.366Z,90.14
2022-10-11T02:34:05.951Z,90.24
2022-10-11T02:34:26.532Z,90.55
2022-10-11T02:34:47.111Z,90.65
2022-10-11T02:35:07.696Z,90.65
2022-10-11T02:35:28.281Z,90.55
2022-10-11T02:35:48.859Z,90.24
2022-10-11T02:36:09.440Z,90.03
2022-10-11T02:36:29.837Z,90.34
2022-10-11T02:36:50.254Z,90.65
2022-10-11T02:37:10.838Z,90.55
2022-10-11T02:37:31.422Z,90.44
2022-10-11T02:37:52.003Z,90.44
2022-10-11T02:38:12.584Z,90.24
2022-10-11T02:38:33.173Z,90.14
2022-10-11T02:38:53.754Z,90.24
2022-10-11T02:39:14.333Z,90.44
2022-10-11T02:39:34.922Z,90.34
2022-10-11T02:39:55.505Z,90.24
2022-10-11T02:40:16.084Z,90.03
2022-10-11T02:40:36.668Z,89.93
2022-10-11T02:40:57.260Z,89.72
2022-10-11T02:41:17.838Z,89.62
2022-10-11T02:41:38.244Z,89.72
2022-10-11T02:41:58.828Z,89.83
2022-10-11T02:42:19.408Z,90.03
2022-10-11T02:42:39.990Z,89.93
2022-10-11T02:43:00.572Z,89.83
2022-10-11T02:43:21.155Z,89.83
2022-10-11T02:43:41.906Z,89.83
2022-10-11T02:44:02.493Z,89.83
2022-10-11T02:44:23.072Z,89.72
2022-10-11T02:44:43.648Z,89.52
2022-10-11T02:45:04.233Z,89.52
2022-10-11T02:45:24.817Z,89.52
2022-10-11T02:45:45.399Z,89.62
2022-10-11T02:46:06.432Z,89.93
2022-10-11T02:46:27.312Z,90.14
2022-10-11T02:46:47.723Z,90.24
2022-10-11T02:47:08.304Z,90.14
2022-10-11T02:47:28.884Z,90.03
2022-10-11T02:47:49.467Z,89.93
2022-10-11T02:48:10.050Z,89.93
2022-10-11T02:48:30.449Z,89.83
2022-10-11T02:48:51.033Z,89.62
2022-10-11T02:49:11.614Z,89.62
2022-10-11T02:49:32.199Z,89.83
2022-10-11T02:49:52.780Z,90.14
2022-10-11T02:50:13.366Z,90.14
2022-10-11T02:50:33.950Z,90.14
2022-10-11T02:50:54.536Z,90.24
2022-10-11T02:51:15.116Z,90.44
2022-10-11T02:51:35.511Z,90.44
2022-10-11T02:51:56.117Z,90.59
2022-10-11T02:52:16.701Z,90.59
2022-10-11T02:52:37.284Z,90.80
2022-10-11T02:52:57.869Z,91.00
2022-10-11T02:53:18.448Z,91.10
2022-10-11T02:53:39.033Z,91.00
2022-10-11T02:53:59.616Z,90.89
2022-10-11T02:54:20.196Z,90.80
2022-10-11T02:54:40.777Z,90.59
2022-10-11T02:55:01.359Z,90.48
2022-10-11T02:55:21.939Z,90.59
2022-10-11T02:55:42.336Z,90.38
2022-10-11T02:56:03.343Z,90.28
2022-10-11T02:56:24.061Z,90.48
2022-10-11T02:56:44.649Z,90.69
2022-10-11T02:57:05.243Z,90.80
2022-10-11T02:57:25.830Z,91.00
2022-10-11T02:57:46.223Z,91.10
2022-10-11T02:58:06.615Z,91.10
2022-10-11T02:58:27.200Z,91.00
2022-10-11T02:58:47.780Z,90.89
2022-10-11T02:59:08.364Z,90.80
2022-10-11T02:59:28.754Z,90.80
2022-10-11T02:59:49.344Z,90.69
2022-10-11T03:00:09.921Z,90.59
2022-10-11T03:00:30.505Z,90.59
2022-10-11T03:00:51.085Z,90.69
2022-10-11T03:01:11.718Z,90.69
2022-10-11T03:01:32.386Z,90.80
2022-10-11T03:01:53.019Z,90.80
2022-10-11T03:02:13.580Z,90.69
2022-10-11T03:02:33.992Z,90.59
2022-10-11T03:02:54.561Z,90.48
2022-10-11T03:03:15.143Z,90.48
2022-10-11T03:03:35.543Z,90.28
2022-10-11T03:03:56.126Z,90.18
2022-10-11T03:04:16.712Z,90.38
2022-10-11T03:04:37.295Z,90.28
2022-10-11T03:04:57.882Z,90.18
2022-10-11T03:05:18.464Z,89.97
2022-10-11T03:05:39.048Z,89.97
2022-10-11T03:05:59.629Z,90.08
2022-10-11T03:06:20.213Z,90.18
2022-10-11T03:06:40.792Z,90.18
2022-10-11T03:07:01.371Z,90.28
2022-10-11T03:07:21.969Z,90.18
2022-10-11T03:07:42.366Z,90.18
2022-10-11T03:08:02.949Z,90.28
2022-10-11T03:08:23.531Z,90.69
2022-10-11T03:08:44.105Z,91.00
2022-10-11T03:09:04.688Z,90.89
2022-10-11T03:09:25.272Z,90.80
2022-10-11T03:09:45.849Z,90.69
2022-10-11T03:10:06.441Z,90.69
2022-10-11T03:10:27.019Z,90.59
2022-10-11T03:10:47.603Z,90.59
2022-10-11T03:11:08.188Z,90.69
2022-10-11T03:11:28.775Z,90.89
2022-10-11T03:11:49.356Z,90.89
2022-10-11T03:12:09.940Z,90.89
2022-10-11T03:12:30.535Z,90.69
2022-10-11T03:12:51.124Z,90.73
2022-10-11T03:13:16.016Z,90.59
2022-10-11T03:13:32.110Z,90.53
2022-10-11T03:13:52.688Z,90.42
2022-10-11T03:14:13.274Z,90.42
2022-10-11T03:14:33.669Z,90.63
2022-10-11T03:14:54.254Z,90.94
2022-10-11T03:15:14.830Z,91.04
2022-10-11T03:15:35.411Z,91.04
2022-10-11T03:16:07.288Z,91.14
2022-10-11T03:16:16.422Z,91.14
2022-10-11T03:16:36.987Z,91.04
2022-10-11T03:17:12.087Z,90.83
2022-10-11T03:17:35.765Z,90.73
2022-10-11T03:17:38.394Z,90.63
2022-10-11T03:17:58.965Z,90.42
2022-10-11T03:18:19.362Z,90.53
2022-10-11T03:18:39.942Z,90.73
2022-10-11T03:19:00.532Z,90.73
2022-10-11T03:19:21.114Z,90.63
2022-10-11T03:19:41.511Z,90.83
2022-10-11T03:20:02.095Z,91.04
2022-10-11T03:20:22.672Z,91.25
2022-10-11T03:20:43.253Z,91.35
2022-10-11T03:21:03.833Z,91.35
2022-10-11T03:21:24.412Z,91.25
2022-10-11T03:21:44.805Z,91.14
2022-10-11T03:22:05.386Z,91.14
2022-10-11T03:22:25.971Z,91.55
2022-10-11T03:22:46.567Z,91.66
2022-10-11T03:23:07.152Z,91.66
2022-10-11T03:23:27.732Z,91.55
2022-10-11T03:23:48.315Z,91.66
2022-10-11T03:24:08.900Z,91.76
2022-10-11T03:24:29.297Z,91.76
2022-10-11T03:24:49.888Z,91.76
2022-10-11T03:25:10.474Z,91.86
2022-10-11T03:25:31.064Z,92.07
2022-10-11T03:25:51.645Z,92.17
2022-10-11T03:26:12.227Z,92.07
2022-10-11T03:26:32.808Z,91.97
2022-10-11T03:26:53.391Z,91.86
2022-10-11T03:27:13.975Z,91.76
2022-10-11T03:27:34.560Z,91.66
2022-10-11T03:27:55.153Z,91.55
2022-10-11T03:28:15.784Z,91.66
2022-10-11T03:28:36.504Z,91.76
2022-10-11T03:28:57.195Z,91.76
2022-10-11T03:29:17.784Z,91.55
2022-10-11T03:29:38.366Z,91.45
2022-10-11T03:29:58.950Z,91.55
2022-10-11T03:30:19.533Z,91.66
2022-10-11T03:30:40.122Z,91.76
2022-10-11T03:31:00.700Z,92.17
2022-10-11T03:31:21.310Z,92.38
2022-10-11T03:31:41.890Z,92.48
2022-10-11T03:32:02.282Z,92.48
2022-10-11T03:32:22.863Z,92.58
2022-10-11T03:32:43.258Z,92.58
2022-10-11T03:33:03.849Z,92.48
2022-10-11T03:33:24.434Z,92.52
2022-10-11T03:33:45.017Z,92.42
2022-10-11T03:34:05.596Z,92.32
2022-10-11T03:34:26.175Z,92.32
2022-10-11T03:34:46.761Z,92.32
2022-10-11T03:35:07.341Z,92.42
2022-10-11T03:35:27.927Z,92.42
2022-10-11T03:35:48.508Z,92.63
2022-10-11T03:36:09.311Z,92.63
2022-10-11T03:36:30.032Z,92.63
2022-10-11T03:36:50.615Z,92.63
2022-10-11T03:37:11.192Z,92.83
2022-10-11T03:37:31.774Z,93.04
2022-10-11T03:37:52.355Z,93.04
2022-10-11T03:38:13.130Z,93.14
2022-10-11T03:38:33.694Z,93.14
2022-10-11T03:38:54.273Z,93.14
2022-10-11T03:39:14.857Z,93.14
2022-10-11T03:39:35.440Z,93.04
2022-10-11T03:39:56.022Z,92.93
2022-10-11T03:40:16.603Z,92.83
2022-10-11T03:40:37.188Z,92.83
2022-10-11T03:40:57.770Z,92.93
2022-10-11T03:41:18.353Z,93.04
2022-10-11T03:41:38.938Z,92.93
2022-10-11T03:41:59.525Z,92.83
2022-10-11T03:42:20.107Z,92.73
2022-10-11T03:42:40.694Z,92.63
2022-10-11T03:43:01.277Z,92.52
2022-10-11T03:43:21.869Z,92.42
2022-10-11T03:43:42.459Z,92.42
2022-10-11T03:44:03.041Z,92.42
2022-10-11T03:44:23.626Z,92.42
2022-10-11T03:44:44.209Z,92.21
2022-10-11T03:45:04.792Z,92.21
2022-10-11T03:45:25.375Z,92.42
2022-10-11T03:45:45.957Z,92.52
2022-10-11T03:46:07.060Z,92.63
2022-10-11T03:46:27.935Z,92.63
2022-10-11T03:46:48.493Z,92.73
2022-10-11T03:47:08.890Z,92.63
2022-10-11T03:47:29.472Z,92.73
2022-10-11T03:47:50.053Z,92.63
2022-10-11T03:48:10.632Z,92.32
2022-10-11T03:48:31.235Z,92.11
2022-10-11T03:48:51.818Z,92.01
2022-10-11T03:49:12.397Z,92.01
2022-10-11T03:49:32.977Z,92.11
2022-10-11T03:49:53.560Z,92.11
2022-10-11T03:50:14.142Z,92.21
2022-10-11T03:50:34.727Z,92.52
2022-10-11T03:50:55.309Z,92.73
2022-10-11T03:51:15.893Z,92.73
2022-10-11T03:51:36.494Z,92.63
2022-10-11T03:51:56.868Z,92.42
2022-10-11T03:52:17.452Z,92.11
2022-10-11T03:52:38.032Z,91.80
2022-10-11T03:52:58.619Z,91.80
2022-10-11T03:53:19.202Z,91.70
2022-10-11T03:53:39.795Z,91.70
2022-10-11T03:54:00.379Z,91.60
2022-10-11T03:54:20.960Z,91.60
2022-10-11T03:54:41.549Z,91.70
2022-10-11T03:55:02.124Z,91.91
2022-10-11T03:55:22.710Z,92.32
2022-10-11T03:55:43.288Z,92.52
2022-10-11T03:56:08.241Z,92.52
2022-10-11T03:56:23.974Z,92.32
2022-10-11T03:56:44.553Z,92.11
2022-10-11T03:57:05.141Z,91.91
2022-10-11T03:57:25.722Z,91.70
2022-10-11T03:57:46.301Z,91.60
2022-10-11T03:58:06.994Z,91.60
2022-10-11T03:58:27.395Z,91.49
2022-10-11T03:58:47.994Z,91.39
2022-10-11T03:59:08.575Z,91.39
2022-10-11T03:59:29.159Z,91.39
2022-10-11T03:59:49.742Z,91.39
2022-10-11T04:00:10.131Z,91.49
2022-10-11T04:00:30.717Z,91.49
2022-10-11T04:00:51.295Z,91.49
2022-10-11T04:01:11.692Z,91.60
2022-10-11T04:01:32.362Z,91.49
2022-10-11T04:01:53.060Z,91.39
2022-10-11T04:02:13.669Z,91.39
2022-10-11T04:02:38.922Z,91.29
2022-10-11T04:02:54.634Z,91.53
2022-10-11T04:03:15.213Z,91.95
2022-10-11T04:03:35.801Z,92.25
2022-10-11T04:03:56.387Z,92.46
2022-10-11T04:04:16.974Z,92.46
2022-10-11T04:04:37.557Z,92.46
2022-10-11T04:04:58.140Z,92.57
2022-10-11T04:05:18.724Z,92.77
2022-10-11T04:05:39.313Z,92.97
2022-10-11T04:05:59.886Z,92.97
2022-10-11T04:06:20.466Z,93.08
2022-10-11T04:06:41.049Z,93.18
2022-10-11T04:07:01.628Z,93.18
2022-10-11T04:07:22.210Z,93.29
2022-10-11T04:07:42.795Z,92.97
2022-10-11T04:08:04.675Z,92.67
2022-10-11T04:08:27.873Z,92.77
2022-10-11T04:08:48.471Z,93.08
2022-10-11T04:09:09.056Z,93.18
2022-10-11T04:09:29.636Z,92.97
2022-10-11T04:09:50.221Z,92.67
2022-10-11T04:10:10.800Z,92.46
2022-10-11T04:10:31.383Z,92.36
2022-10-11T04:10:51.994Z,92.67
2022-10-11T04:11:12.546Z,92.97
2022-10-11T04:11:33.125Z,93.08
2022-10-11T04:11:53.715Z,92.97
2022-10-11T04:12:14.293Z,92.77
2022-10-11T04:12:34.876Z,92.67
2022-10-11T04:12:55.460Z,92.57
2022-10-11T04:13:16.046Z,92.57
2022-10-11T04:13:36.631Z,92.36
2022-10-11T04:13:57.228Z,92.16
2022-10-11T04:14:17.805Z,92.05
2022-10-11T04:14:38.394Z,92.05
2022-10-11T04:14:58.972Z,92.25
2022-10-11T04:15:19.366Z,92.25
2022-10-11T04:15:39.950Z,92.25
2022-10-11T04:16:00.533Z,92.36
2022-10-11T04:16:21.111Z,92.46
2022-10-11T04:16:41.526Z,92.36
2022-10-11T04:17:02.087Z,92.36
2022-10-11T04:17:22.671Z,92.67
2022-10-11T04:17:43.252Z,93.02
2022-10-11T04:18:03.837Z,93.08
2022-10-11T04:18:24.420Z,93.12
2022-10-11T04:18:45.006Z,92.97
2022-10-11T04:19:05.607Z,93.02
2022-10-11T04:19:26.185Z,93.02
2022-10-11T04:19:46.765Z,92.97
2022-10-11T04:20:07.162Z,92.77
2022-10-11T04:20:27.739Z,92.57
2022-10-11T04:20:48.323Z,92.57
2022-10-11T04:21:08.913Z,92.87
2022-10-11T04:21:29.491Z,93.18
2022-10-11T04:21:50.073Z,92.97
2022-10-11T04:22:10.653Z,92.67
2022-10-11T04:22:31.049Z,92.50
2022-10-11T04:22:51.629Z,92.40
2022-10-11T04:23:12.024Z,92.40
2022-10-11T04:23:32.605Z,92.40
2022-10-11T04:23:53.204Z,92.30
2022-10-11T04:24:13.786Z,92.30
2022-10-11T04:24:34.364Z,92.30
2022-10-11T04:24:54.760Z,92.40
2022-10-11T04:25:15.340Z,92.61
2022-10-11T04:25:35.922Z,92.61
2022-10-11T04:25:56.504Z,92.71
2022-10-11T04:26:17.089Z,92.71
2022-10-11T04:26:37.669Z,92.71
2022-10-11T04:26:58.250Z,92.71
2022-10-11T04:27:18.831Z,92.50
2022-10-11T04:27:39.414Z,92.61
2022-10-11T04:28:00.007Z,92.82
2022-10-11T04:28:20.619Z,93.02
2022-10-11T04:28:41.248Z,92.92
2022-10-11T04:29:01.816Z,92.92
2022-10-11T04:29:22.399Z,92.92
2022-10-11T04:29:42.981Z,92.82
2022-10-11T04:30:03.563Z,92.82
2022-10-11T04:30:24.148Z,93.02
2022-10-11T04:30:44.729Z,93.12
2022-10-11T04:31:05.310Z,93.23
2022-10-11T04:31:25.891Z,93.33
2022-10-11T04:31:46.493Z,93.12
2022-10-11T04:32:07.053Z,92.92
2022-10-11T04:32:27.637Z,93.02
2022-10-11T04:32:48.213Z,93.12
2022-10-11T04:33:08.794Z,93.12
2022-10-11T04:33:29.373Z,93.33
2022-10-11T04:33:49.955Z,93.33
2022-10-11T04:34:10.554Z,93.43
2022-10-11T04:34:30.947Z,93.43
2022-10-11T04:34:51.530Z,93.43
2022-10-11T04:35:12.116Z,93.33
2022-10-11T04:35:32.694Z,93.23
2022-10-11T04:35:53.278Z,93.23
2022-10-11T04:36:13.862Z,93.12
2022-10-11T04:36:34.443Z,93.12
2022-10-11T04:36:55.028Z,93.23
2022-10-11T04:37:15.609Z,93.33
2022-10-11T04:37:36.190Z,93.33
2022-10-11T04:37:56.774Z,93.33
2022-10-11T04:38:17.353Z,93.43
2022-10-11T04:38:37.932Z,93.54
2022-10-11T04:38:58.533Z,93.54
2022-10-11T04:39:19.117Z,93.43
2022-10-11T04:39:39.702Z,93.43
2022-10-11T04:40:00.280Z,93.54
2022-10-11T04:40:20.872Z,93.54
2022-10-11T04:40:41.452Z,93.33
2022-10-11T04:41:02.044Z,93.23
2022-10-11T04:41:22.624Z,93.23
2022-10-11T04:41:43.201Z,93.23
2022-10-11T04:42:03.787Z,92.92
2022-10-11T04:42:24.366Z,92.82
2022-10-11T04:42:44.945Z,92.71
2022-10-11T04:43:05.349Z,92.71
2022-10-11T04:43:25.933Z,92.61
2022-10-11T04:43:46.565Z,92.71
2022-10-11T04:44:06.979Z,92.92
2022-10-11T04:44:27.561Z,92.92
2022-10-11T04:44:48.143Z,92.92
2022-10-11T04:45:08.731Z,93.12
2022-10-11T04:45:29.313Z,93.33
2022-10-11T04:45:54.637Z,93.43
2022-10-11T04:46:10.938Z,93.54
2022-10-11T04:46:30.682Z,93.33
2022-10-11T04:46:51.285Z,93.33
2022-10-11T04:47:11.842Z,93.33
2022-10-11T04:47:32.427Z,93.33
2022-10-11T04:47:53.009Z,93.33
2022-10-11T04:48:13.588Z,93.33
2022-10-11T04:48:34.170Z,93.43
2022-10-11T04:48:54.758Z,93.54
2022-10-11T04:49:15.356Z,93.43
2022-10-11T04:49:35.933Z,93.43
2022-10-11T04:49:56.512Z,93.02
2022-10-11T04:50:17.094Z,92.92
2022-10-11T04:50:37.674Z,93.02
2022-10-11T04:50:58.256Z,93.33
2022-10-11T04:51:18.835Z,93.43
2022-10-11T04:51:39.432Z,93.43
2022-10-11T04:52:00.006Z,93.33
2022-10-11T04:52:25.401Z,93.23
2022-10-11T04:52:40.988Z,93.23
2022-10-11T04:53:01.386Z,93.23
2022-10-11T04:53:21.966Z,93.23
2022-10-11T04:53:42.573Z,93.23
2022-10-11T04:54:03.149Z,93.23
2022-10-11T04:54:23.728Z,93.33
2022-10-11T04:54:44.312Z,93.48
2022-10-11T04:55:04.894Z,93.58
2022-10-11T04:55:25.476Z,93.68
2022-10-11T04:55:46.061Z,93.58
2022-10-11T04:56:07.002Z,93.58
2022-10-11T04:56:27.879Z,93.68
2022-10-11T04:56:48.461Z,93.58
2022-10-11T04:57:09.046Z,93.58
2022-10-11T04:57:29.633Z,93.58
2022-10-11T04:57:50.216Z,93.68
2022-10-11T04:58:10.794Z,93.79
2022-10-11T04:58:31.377Z,93.68
2022-10-11T04:58:51.955Z,93.68
2022-10-11T04:59:12.579Z,93.79
2022-10-11T04:59:33.144Z,93.88
2022-10-11T04:59:53.730Z,93.99
2022-10-11T05:00:14.315Z,93.99
2022-10-11T05:00:34.707Z,93.99
2022-10-11T05:00:55.102Z,93.79
2022-10-11T05:01:15.684Z,93.48
2022-10-11T05:01:36.360Z,93.37
2022-10-11T05:01:56.746Z,93.58
2022-10-11T05:02:17.486Z,93.88
2022-10-11T05:02:38.086Z,93.99
2022-10-11T05:02:58.665Z,94.09
2022-10-11T05:03:19.241Z,94.09
2022-10-11T05:03:39.821Z,93.88
2022-10-11T05:04:00.404Z,93.79
2022-10-11T05:04:20.995Z,93.79
2022-10-11T05:04:41.591Z,93.68
2022-10-11T05:05:02.171Z,93.58
2022-10-11T05:05:22.750Z,93.48
2022-10-11T05:05:43.338Z,93.68
2022-10-11T05:06:05.875Z,93.88
2022-10-11T05:06:26.681Z,93.88
2022-10-11T05:06:47.265Z,93.88
2022-10-11T05:07:07.847Z,93.88
2022-10-11T05:07:28.431Z,93.99
2022-10-11T05:07:48.825Z,94.20
2022-10-11T05:08:09.411Z,94.30
2022-10-11T05:08:29.991Z,94.20
2022-10-11T05:08:50.582Z,93.99
2022-10-11T05:09:11.185Z,93.88
2022-10-11T05:09:31.762Z,93.79
2022-10-11T05:09:52.351Z,93.68
2022-10-11T05:10:12.930Z,93.68
2022-10-11T05:10:33.512Z,93.68
2022-10-11T05:10:54.095Z,93.68
2022-10-11T05:11:16.001Z,93.58
2022-10-11T05:11:36.825Z,93.48
2022-10-11T05:11:57.405Z,93.48
2022-10-11T05:12:17.991Z,93.58
2022-10-11T05:12:38.570Z,93.58
2022-10-11T05:12:58.964Z,93.48
2022-10-11T05:13:19.543Z,93.58
2022-10-11T05:13:40.181Z,93.79
2022-10-11T05:14:00.735Z,93.88
2022-10-11T05:14:21.328Z,93.88
2022-10-11T05:14:41.910Z,93.88
2022-10-11T05:15:02.493Z,93.79
2022-10-11T05:15:23.076Z,93.79
2022-10-11T05:15:43.658Z,93.88
2022-10-11T05:16:09.606Z,93.99
2022-10-11T05:16:24.643Z,94.20
2022-10-11T05:16:45.032Z,94.30
2022-10-11T05:17:05.661Z,94.30
2022-10-11T05:17:26.197Z,94.20
2022-10-11T05:17:46.775Z,94.20
2022-10-11T05:18:07.177Z,94.20
2022-10-11T05:18:27.765Z,94.30
2022-10-11T05:18:48.344Z,94.30
2022-10-11T05:19:08.937Z,94.30
2022-10-11T05:19:29.534Z,94.30
2022-10-11T05:19:50.116Z,94.40
2022-10-11T05:20:10.698Z,94.60
2022-10-11T05:20:31.285Z,94.81
2022-10-11T05:20:51.864Z,94.81
2022-10-11T05:21:12.450Z,94.71
2022-10-11T05:21:33.028Z,94.51
2022-10-11T05:21:53.612Z,94.40
2022-10-11T05:22:14.194Z,94.30
2022-10-11T05:22:34.777Z,94.20
2022-10-11T05:22:55.359Z,94.30
2022-10-11T05:23:15.942Z,94.40
2022-10-11T05:23:36.529Z,94.60
2022-10-11T05:23:57.114Z,94.92
2022-10-11T05:24:17.714Z,95.02
2022-10-11T05:24:38.302Z,95.12
2022-10-11T05:24:58.892Z,95.33
2022-10-11T05:25:19.469Z,95.53
2022-10-11T05:25:39.864Z,95.53
2022-10-11T05:26:00.450Z,95.64
2022-10-11T05:26:21.039Z,95.64
2022-10-11T05:26:41.622Z,95.64
2022-10-11T05:27:03.495Z,95.74
2022-10-11T05:27:22.597Z,95.84
2022-10-11T05:27:43.176Z,95.74
2022-10-11T05:28:03.763Z,95.64
2022-10-11T05:28:24.179Z,95.53
2022-10-11T05:28:44.901Z,95.48
2022-10-11T05:29:05.475Z,95.33
2022-10-11T05:29:26.075Z,95.33
2022-10-11T05:29:46.658Z,95.33
2022-10-11T05:30:07.058Z,95.37
2022-10-11T05:30:27.640Z,95.48
2022-10-11T05:30:48.222Z,95.53
2022-10-11T05:31:08.801Z,95.43
2022-10-11T05:31:29.386Z,95.43
2022-10-11T05:31:49.980Z,95.64
2022-10-11T05:32:10.576Z,95.84
2022-10-11T05:32:31.136Z,96.09
2022-10-11T05:32:51.721Z,96.25
2022-10-11T05:33:12.298Z,96.25
2022-10-11T05:33:32.879Z,96.25
2022-10-11T05:33:53.462Z,96.30
2022-10-11T05:34:14.045Z,96.25
2022-10-11T05:34:34.643Z,96.25
2022-10-11T05:34:55.223Z,96.25
2022-10-11T05:35:15.811Z,96.25
2022-10-11T05:35:36.392Z,96.25
2022-10-11T05:35:56.981Z,96.15
2022-10-11T05:36:17.567Z,96.25
2022-10-11T05:36:38.144Z,96.20
2022-10-11T05:36:58.730Z,96.05
2022-10-11T05:37:19.312Z,96.15
2022-10-11T05:37:39.898Z,96.15
2022-10-11T05:38:00.475Z,96.36
2022-10-11T05:38:21.131Z,96.25
2022-10-11T05:38:41.676Z,96.25
2022-10-11T05:39:02.261Z,96.25
2022-10-11T05:39:22.655Z,96.36
2022-10-11T05:39:43.251Z,96.56
2022-10-11T05:40:03.833Z,96.56
2022-10-11T05:40:24.415Z,96.46
2022-10-11T05:40:44.994Z,96.36
2022-10-11T05:41:05.576Z,96.25
2022-10-11T05:41:26.161Z,96.15
2022-10-11T05:41:46.744Z,96.25
2022-10-11T05:42:09.889Z,96.25
2022-10-11T05:42:30.691Z,96.25
2022-10-11T05:42:51.268Z,96.15
2022-10-11T05:43:11.850Z,96.05
2022-10-11T05:43:32.436Z,95.95
2022-10-11T05:43:53.017Z,95.84
2022-10-11T05:44:13.600Z,95.84
2022-10-11T05:44:34.202Z,95.84
2022-10-11T05:44:54.783Z,95.84
2022-10-11T05:45:15.369Z,95.84
2022-10-11T05:45:35.952Z,95.95
2022-10-11T05:45:56.536Z,95.95
2022-10-11T05:46:17.115Z,95.95
2022-10-11T05:46:37.700Z,95.84
2022-10-11T05:46:58.283Z,95.64
2022-10-11T05:47:18.882Z,95.64
2022-10-11T05:47:39.445Z,95.84
2022-10-11T05:48:00.025Z,95.95
2022-10-11T05:48:20.611Z,95.95
2022-10-11T05:48:41.188Z,95.95
2022-10-11T05:49:01.774Z,95.84
2022-10-11T05:49:22.356Z,95.84
2022-10-11T05:49:42.954Z,95.74
2022-10-11T05:50:03.532Z,95.64
2022-10-11T05:50:24.537Z,95.43
2022-10-11T05:50:45.208Z,95.33
2022-10-11T05:51:05.779Z,95.64
2022-10-11T05:51:26.368Z,95.64
2022-10-11T05:51:46.949Z,95.74
2022-10-11T05:52:07.341Z,95.74
2022-10-11T05:52:27.922Z,95.64
2022-10-11T05:52:48.503Z,95.53
2022-10-11T05:53:09.086Z,95.43
2022-10-11T05:53:29.477Z,95.43
2022-10-11T05:53:50.058Z,95.43
2022-10-11T05:54:10.641Z,95.53
2022-10-11T05:54:31.221Z,95.53
2022-10-11T05:54:51.814Z,95.64
2022-10-11T05:55:12.394Z,95.64
2022-10-11T05:55:32.972Z,95.64
2022-10-11T05:55:53.553Z,95.64
2022-10-11T05:56:14.133Z,95.74
2022-10-11T05:56:34.714Z,95.95
2022-10-11T05:56:55.306Z,95.84
2022-10-11T05:57:15.698Z,95.84
2022-10-11T05:57:36.280Z,95.84
2022-10-11T05:57:56.863Z,96.05
2022-10-11T05:58:17.449Z,96.25
2022-10-11T05:58:38.029Z,96.36
2022-10-11T05:59:02.203Z,96.36
2022-10-11T05:59:23.149Z,96.46
2022-10-11T05:59:43.742Z,96.46
2022-10-11T06:00:04.325Z,96.46
2022-10-11T06:00:24.924Z,96.56
2022-10-11T06:00:45.510Z,96.67
2022-10-11T06:01:06.175Z,96.67
2022-10-11T06:01:26.814Z,96.56
2022-10-11T06:01:47.449Z,96.56
2022-10-11T06:02:08.001Z,96.56
2022-10-11T06:02:28.618Z,96.46
2022-10-11T06:02:49.170Z,96.56
2022-10-11T06:03:09.749Z,96.67
2022-10-11T06:03:30.330Z,96.88
2022-10-11T06:03:50.913Z,96.97
2022-10-11T06:04:11.496Z,96.97
2022-10-11T06:04:32.081Z,96.97
2022-10-11T06:04:52.679Z,96.97
2022-10-11T06:05:13.252Z,97.08
2022-10-11T06:05:33.833Z,97.08
2022-10-11T06:05:56.989Z,97.08
2022-10-11T06:06:17.803Z,97.08
2022-10-11T06:06:38.384Z,97.03
2022-10-11T06:06:58.965Z,97.03
2022-10-11T06:07:19.549Z,97.28
2022-10-11T06:07:40.136Z,97.34
2022-10-11T06:08:00.714Z,97.28
2022-10-11T06:08:21.297Z,97.28
2022-10-11T06:08:41.889Z,97.28
2022-10-11T06:09:02.470Z,97.28
2022-10-11T06:09:23.056Z,97.14
2022-10-11T06:09:43.654Z,97.03
2022-10-11T06:10:04.238Z,97.03
2022-10-11T06:10:24.856Z,96.93
2022-10-11T06:10:45.442Z,96.93
2022-10-11T06:11:09.148Z,97.03
2022-10-11T06:11:26.427Z,97.03
2022-10-11T06:11:47.011Z,97.14
2022-10-11T06:12:07.593Z,97.24
2022-10-11T06:12:28.172Z,97.34
2022-10-11T06:12:48.753Z,97.34
2022-10-11T06:13:09.345Z,97.34
2022-10-11T06:13:29.920Z,97.24
2022-10-11T06:13:50.504Z,97.24
2022-10-11T06:14:11.090Z,97.34
2022-10-11T06:14:31.484Z,97.55
2022-10-11T06:14:52.087Z,97.65
2022-10-11T06:15:12.669Z,97.75
2022-10-11T06:15:33.251Z,97.75
2022-10-11T06:15:53.840Z,97.75
2022-10-11T06:16:14.428Z,97.75
2022-10-11T06:16:35.009Z,97.75
2022-10-11T06:16:55.589Z,97.65
2022-10-11T06:17:16.174Z,97.55
2022-10-11T06:17:36.782Z,97.34
2022-10-11T06:17:57.340Z,97.34
2022-10-11T06:18:17.735Z,97.24
2022-10-11T06:18:38.318Z,97.14
2022-10-11T06:18:58.899Z,97.03
2022-10-11T06:19:19.484Z,97.24
2022-10-11T06:19:40.069Z,97.24
2022-10-11T06:20:00.666Z,97.24
2022-10-11T06:20:21.061Z,97.14
2022-10-11T06:20:41.650Z,97.09
2022-10-11T06:21:02.245Z,96.99
2022-10-11T06:21:22.824Z,96.99
2022-10-11T06:21:43.422Z,97.19
2022-10-11T06:22:03.993Z,97.19
2022-10-11T06:22:24.574Z,97.19
2022-10-11T06:22:45.158Z,97.19
2022-10-11T06:23:05.743Z,97.30
2022-10-11T06:23:26.320Z,97.30
2022-10-11T06:23:46.715Z,97.40
2022-10-11T06:24:07.295Z,97.30
2022-10-11T06:24:27.879Z,97.30
2022-10-11T06:24:48.475Z,97.30
2022-10-11T06:25:09.063Z,97.30
2022-10-11T06:25:29.642Z,97.30
2022-10-11T06:25:50.221Z,97.30